sensor_id;sensor_type;location;lat;lon;timestamp;pressure;altitude;pressure_sealevel;temperature;humidity
56160;BME280;42043;46.052;13.612;2022-07-29T00:00:44;100402.53;;;23.52;69.89
56160;BME280;42043;46.052;13.612;2022-07-29T00:03:11;100402.81;;;23.51;69.90
56160;BME280;42043;46.052;13.612;2022-07-29T00:05:39;100404.94;;;22.74;74.62
56160;BME280;42043;46.052;13.612;2022-07-29T00:08:05;100421.56;;;23.25;72.55
56160;BME280;42043;46.052;13.612;2022-07-29T00:10:31;100413.22;;;22.62;75.90
56160;BME280;42043;46.052;13.612;2022-07-29T00:12:58;100410.00;;;22.97;73.36
56160;BME280;42043;46.052;13.612;2022-07-29T00:15:24;100412.69;;;22.97;74.47
56160;BME280;42043;46.052;13.612;2022-07-29T00:17:50;100416.69;;;22.90;74.43
56160;BME280;42043;46.052;13.612;2022-07-29T00:20:16;100416.59;;;23.12;72.99
56160;BME280;42043;46.052;13.612;2022-07-29T00:22:42;100406.34;;;22.81;74.39
56160;BME280;42043;46.052;13.612;2022-07-29T00:25:08;100406.41;;;22.54;74.86
56160;BME280;42043;46.052;13.612;2022-07-29T00:27:37;100398.72;;;22.68;74.63
56160;BME280;42043;46.052;13.612;2022-07-29T00:30:04;100403.47;;;22.93;73.76
56160;BME280;42043;46.052;13.612;2022-07-29T00:32:30;100398.56;;;23.60;69.91
56160;BME280;42043;46.052;13.612;2022-07-29T00:34:56;100399.38;;;23.65;69.58
56160;BME280;42043;46.052;13.612;2022-07-29T00:37:41;100402.56;;;23.10;72.73
56160;BME280;42043;46.052;13.612;2022-07-29T00:40:08;100396.41;;;22.82;74.94
56160;BME280;42043;46.052;13.612;2022-07-29T00:42:47;100396.16;;;23.21;71.97
56160;BME280;42043;46.052;13.612;2022-07-29T00:45:14;100385.47;;;23.36;71.48
56160;BME280;42043;46.052;13.612;2022-07-29T00:47:41;100392.69;;;22.93;73.38
56160;BME280;42043;46.052;13.612;2022-07-29T00:50:08;100388.91;;;22.89;74.07
56160;BME280;42043;46.052;13.612;2022-07-29T00:52:36;100374.72;;;22.72;74.56
56160;BME280;42043;46.052;13.612;2022-07-29T00:55:05;100385.22;;;23.00;73.88
56160;BME280;42043;46.052;13.612;2022-07-29T00:57:31;100373.22;;;23.76;69.11
56160;BME280;42043;46.052;13.612;2022-07-29T00:59:58;100369.84;;;22.69;73.48
56160;BME280;42043;46.052;13.612;2022-07-29T01:02:24;100372.19;;;22.28;76.08
56160;BME280;42043;46.052;13.612;2022-07-29T01:04:50;100372.66;;;22.84;74.01
56160;BME280;42043;46.052;13.612;2022-07-29T01:07:17;100365.59;;;22.18;76.55
56160;BME280;42043;46.052;13.612;2022-07-29T01:09:45;100366.50;;;22.56;75.31
56160;BME280;42043;46.052;13.612;2022-07-29T01:12:14;100365.28;;;23.07;72.81
56160;BME280;42043;46.052;13.612;2022-07-29T01:14:41;100360.25;;;22.83;72.98
56160;BME280;42043;46.052;13.612;2022-07-29T01:17:16;100373.03;;;22.98;73.11
56160;BME280;42043;46.052;13.612;2022-07-29T01:19:57;100375.41;;;22.89;73.42
56160;BME280;42043;46.052;13.612;2022-07-29T01:22:42;100360.47;;;23.14;72.75
56160;BME280;42043;46.052;13.612;2022-07-29T01:28:17;100349.72;;;23.19;71.82
56160;BME280;42043;46.052;13.612;2022-07-29T01:30:50;100343.53;;;22.86;74.00
56160;BME280;42043;46.052;13.612;2022-07-29T01:33:20;100350.22;;;21.70;80.13
56160;BME280;42043;46.052;13.612;2022-07-29T01:36:27;100347.09;;;22.92;73.51
56160;BME280;42043;46.052;13.612;2022-07-29T01:39:10;100350.13;;;23.00;72.89
56160;BME280;42043;46.052;13.612;2022-07-29T01:41:40;100346.72;;;22.46;77.43
56160;BME280;42043;46.052;13.612;2022-07-29T01:44:20;100340.78;;;22.76;74.99
56160;BME280;42043;46.052;13.612;2022-07-29T01:46:54;100342.75;;;22.53;76.25
56160;BME280;42043;46.052;13.612;2022-07-29T01:49:25;100346.13;;;22.38;76.89
56160;BME280;42043;46.052;13.612;2022-07-29T01:51:55;100344.06;;;22.51;75.25
56160;BME280;42043;46.052;13.612;2022-07-29T01:54:37;100340.84;;;22.91;73.67
56160;BME280;42043;46.052;13.612;2022-07-29T01:57:06;100344.75;;;22.36;76.72
56160;BME280;42043;46.052;13.612;2022-07-29T01:59:34;100353.03;;;22.56;74.74
56160;BME280;42043;46.052;13.612;2022-07-29T02:02:02;100348.31;;;22.74;74.78
56160;BME280;42043;46.052;13.612;2022-07-29T02:04:29;100344.00;;;22.40;75.62
56160;BME280;42043;46.052;13.612;2022-07-29T02:07:01;100349.78;;;22.54;75.16
56160;BME280;42043;46.052;13.612;2022-07-29T02:09:30;100350.44;;;22.12;77.99
56160;BME280;42043;46.052;13.612;2022-07-29T02:11:57;100344.22;;;22.39;76.82
56160;BME280;42043;46.052;13.612;2022-07-29T02:14:26;100341.09;;;22.47;75.96
56160;BME280;42043;46.052;13.612;2022-07-29T02:16:55;100350.72;;;22.38;76.99
56160;BME280;42043;46.052;13.612;2022-07-29T02:19:26;100349.63;;;22.71;74.07
56160;BME280;42043;46.052;13.612;2022-07-29T02:21:54;100350.94;;;22.64;75.56
56160;BME280;42043;46.052;13.612;2022-07-29T02:24:23;100353.06;;;22.07;77.65
56160;BME280;42043;46.052;13.612;2022-07-29T02:26:51;100344.09;;;22.88;73.73
56160;BME280;42043;46.052;13.612;2022-07-29T02:29:21;100345.50;;;22.04;78.58
56160;BME280;42043;46.052;13.612;2022-07-29T02:31:49;100340.59;;;22.01;78.47
56160;BME280;42043;46.052;13.612;2022-07-29T02:34:17;100342.91;;;21.65;80.21
56160;BME280;42043;46.052;13.612;2022-07-29T02:36:45;100331.38;;;21.70;80.59
56160;BME280;42043;46.052;13.612;2022-07-29T02:39:13;100339.06;;;21.61;81.75
56160;BME280;42043;46.052;13.612;2022-07-29T02:41:46;100328.13;;;22.44;76.63
56160;BME280;42043;46.052;13.612;2022-07-29T02:44:18;100339.94;;;21.89;79.57
56160;BME280;42043;46.052;13.612;2022-07-29T02:46:59;100325.44;;;22.44;76.03
56160;BME280;42043;46.052;13.612;2022-07-29T02:49:41;100334.53;;;22.38;76.47
56160;BME280;42043;46.052;13.612;2022-07-29T02:52:12;100334.84;;;22.79;73.18
56160;BME280;42043;46.052;13.612;2022-07-29T02:57:38;100337.09;;;21.12;82.73
56160;BME280;42043;46.052;13.612;2022-07-29T03:00:08;100346.03;;;22.60;75.29
56160;BME280;42043;46.052;13.612;2022-07-29T03:02:38;100342.38;;;21.68;80.02
56160;BME280;42043;46.052;13.612;2022-07-29T03:05:08;100342.25;;;22.02;78.33
56160;BME280;42043;46.052;13.612;2022-07-29T03:07:35;100348.97;;;21.77;80.18
56160;BME280;42043;46.052;13.612;2022-07-29T03:10:02;100354.06;;;21.74;81.60
56160;BME280;42043;46.052;13.612;2022-07-29T03:12:28;100352.22;;;21.80;80.76
56160;BME280;42043;46.052;13.612;2022-07-29T03:14:56;100349.91;;;22.15;78.18
56160;BME280;42043;46.052;13.612;2022-07-29T03:17:23;100355.53;;;22.36;76.95
56160;BME280;42043;46.052;13.612;2022-07-29T03:19:49;100359.09;;;22.74;75.21
56160;BME280;42043;46.052;13.612;2022-07-29T03:22:15;100357.94;;;22.65;75.50
56160;BME280;42043;46.052;13.612;2022-07-29T03:24:41;100355.66;;;23.21;72.74
56160;BME280;42043;46.052;13.612;2022-07-29T03:27:07;100358.16;;;22.95;73.54
56160;BME280;42043;46.052;13.612;2022-07-29T03:29:34;100350.25;;;22.83;74.45
56160;BME280;42043;46.052;13.612;2022-07-29T03:32:05;100318.47;;;21.99;78.77
56160;BME280;42043;46.052;13.612;2022-07-29T03:34:31;100302.31;;;21.72;80.94
56160;BME280;42043;46.052;13.612;2022-07-29T03:36:57;100281.72;;;22.42;77.01
56160;BME280;42043;46.052;13.612;2022-07-29T03:39:28;100267.66;;;22.35;77.17
56160;BME280;42043;46.052;13.612;2022-07-29T03:41:56;100256.63;;;22.79;74.33
56160;BME280;42043;46.052;13.612;2022-07-29T03:44:26;100241.78;;;22.81;72.70
56160;BME280;42043;46.052;13.612;2022-07-29T03:46:54;100242.50;;;23.09;71.64
56160;BME280;42043;46.052;13.612;2022-07-29T03:51:49;100239.59;;;23.26;70.20
56160;BME280;42043;46.052;13.612;2022-07-29T03:54:15;100239.75;;;22.56;74.74
56160;BME280;42043;46.052;13.612;2022-07-29T03:56:43;100247.75;;;22.89;73.00
56160;BME280;42043;46.052;13.612;2022-07-29T03:59:15;100240.53;;;22.94;73.04
56160;BME280;42043;46.052;13.612;2022-07-29T04:01:42;100248.50;;;23.27;69.64
56160;BME280;42043;46.052;13.612;2022-07-29T04:04:09;100240.94;;;22.71;73.03
56160;BME280;42043;46.052;13.612;2022-07-29T04:06:41;100240.38;;;22.69;72.96
56160;BME280;42043;46.052;13.612;2022-07-29T04:09:08;100241.16;;;23.12;69.52
56160;BME280;42043;46.052;13.612;2022-07-29T04:11:36;100248.59;;;23.47;67.51
56160;BME280;42043;46.052;13.612;2022-07-29T04:14:02;100248.53;;;23.32;68.08
56160;BME280;42043;46.052;13.612;2022-07-29T04:16:28;100256.44;;;23.59;66.54
56160;BME280;42043;46.052;13.612;2022-07-29T04:18:54;100254.78;;;23.53;66.25
56160;BME280;42043;46.052;13.612;2022-07-29T04:21:20;100267.97;;;23.34;67.05
56160;BME280;42043;46.052;13.612;2022-07-29T04:23:46;100280.63;;;23.23;67.35
56160;BME280;42043;46.052;13.612;2022-07-29T04:26:16;100274.34;;;23.75;64.64
56160;BME280;42043;46.052;13.612;2022-07-29T04:28:42;100285.03;;;23.39;67.80
56160;BME280;42043;46.052;13.612;2022-07-29T04:31:09;100279.50;;;23.77;65.65
56160;BME280;42043;46.052;13.612;2022-07-29T04:33:35;100290.31;;;23.97;65.39
56160;BME280;42043;46.052;13.612;2022-07-29T04:36:01;100293.16;;;23.55;67.27
56160;BME280;42043;46.052;13.612;2022-07-29T04:38:27;100298.09;;;23.73;66.62
56160;BME280;42043;46.052;13.612;2022-07-29T04:40:53;100311.06;;;23.08;70.39
56160;BME280;42043;46.052;13.612;2022-07-29T04:43:19;100316.78;;;23.22;70.93
56160;BME280;42043;46.052;13.612;2022-07-29T04:45:45;100319.75;;;23.20;70.19
56160;BME280;42043;46.052;13.612;2022-07-29T04:48:11;100322.41;;;23.73;67.83
56160;BME280;42043;46.052;13.612;2022-07-29T04:50:39;100321.44;;;24.05;66.03
56160;BME280;42043;46.052;13.612;2022-07-29T04:53:06;100323.03;;;23.96;67.00
56160;BME280;42043;46.052;13.612;2022-07-29T04:55:32;100328.78;;;23.41;69.38
56160;BME280;42043;46.052;13.612;2022-07-29T04:57:58;100326.41;;;23.08;72.10
56160;BME280;42043;46.052;13.612;2022-07-29T05:00:24;100327.59;;;23.90;67.64
56160;BME280;42043;46.052;13.612;2022-07-29T05:02:50;100330.84;;;23.87;68.32
56160;BME280;42043;46.052;13.612;2022-07-29T05:05:16;100337.06;;;23.87;69.44
56160;BME280;42043;46.052;13.612;2022-07-29T05:07:42;100340.28;;;23.74;69.87
56160;BME280;42043;46.052;13.612;2022-07-29T05:10:08;100333.72;;;23.65;69.83
56160;BME280;42043;46.052;13.612;2022-07-29T05:12:35;100348.38;;;23.74;69.90
56160;BME280;42043;46.052;13.612;2022-07-29T05:15:01;100345.63;;;23.69;69.60
56160;BME280;42043;46.052;13.612;2022-07-29T05:17:27;100341.88;;;23.75;70.03
56160;BME280;42043;46.052;13.612;2022-07-29T05:19:53;100344.13;;;23.41;72.47
56160;BME280;42043;46.052;13.612;2022-07-29T05:22:19;100343.88;;;24.11;68.57
56160;BME280;42043;46.052;13.612;2022-07-29T05:24:46;100350.25;;;23.74;71.44
56160;BME280;42043;46.052;13.612;2022-07-29T05:27:12;100350.56;;;23.82;71.42
56160;BME280;42043;46.052;13.612;2022-07-29T05:29:38;100354.38;;;23.97;70.95
56160;BME280;42043;46.052;13.612;2022-07-29T05:32:04;100354.38;;;23.92;71.10
56160;BME280;42043;46.052;13.612;2022-07-29T05:34:31;100350.94;;;24.27;68.32
56160;BME280;42043;46.052;13.612;2022-07-29T05:36:57;100357.19;;;24.63;66.00
56160;BME280;42043;46.052;13.612;2022-07-29T05:39:23;100355.84;;;24.50;65.89
56160;BME280;42043;46.052;13.612;2022-07-29T05:41:49;100358.78;;;24.34;67.02
56160;BME280;42043;46.052;13.612;2022-07-29T05:44:15;100357.44;;;24.41;65.34
56160;BME280;42043;46.052;13.612;2022-07-29T05:46:41;100368.25;;;24.36;65.33
56160;BME280;42043;46.052;13.612;2022-07-29T05:49:07;100363.69;;;24.72;63.97
56160;BME280;42043;46.052;13.612;2022-07-29T05:51:33;100354.47;;;24.43;64.78
56160;BME280;42043;46.052;13.612;2022-07-29T05:54:00;100364.75;;;24.46;63.43
56160;BME280;42043;46.052;13.612;2022-07-29T05:56:26;100362.28;;;24.34;64.00
56160;BME280;42043;46.052;13.612;2022-07-29T05:58:52;100366.94;;;24.64;63.00
56160;BME280;42043;46.052;13.612;2022-07-29T06:01:18;100360.97;;;24.78;61.87
56160;BME280;42043;46.052;13.612;2022-07-29T06:03:44;100358.81;;;24.75;61.79
56160;BME280;42043;46.052;13.612;2022-07-29T06:06:11;100361.22;;;24.40;63.54
56160;BME280;42043;46.052;13.612;2022-07-29T06:08:37;100372.34;;;24.69;62.90
56160;BME280;42043;46.052;13.612;2022-07-29T06:11:04;100364.22;;;24.69;62.37
56160;BME280;42043;46.052;13.612;2022-07-29T06:13:31;100358.25;;;24.78;61.42
56160;BME280;42043;46.052;13.612;2022-07-29T06:15:57;100373.41;;;25.04;60.94
56160;BME280;42043;46.052;13.612;2022-07-29T06:18:23;100371.25;;;24.96;60.71
56160;BME280;42043;46.052;13.612;2022-07-29T06:20:53;100372.31;;;25.00;60.25
56160;BME280;42043;46.052;13.612;2022-07-29T06:23:20;100377.19;;;25.24;59.68
56160;BME280;42043;46.052;13.612;2022-07-29T06:25:46;100367.44;;;25.18;58.75
56160;BME280;42043;46.052;13.612;2022-07-29T06:28:12;100378.19;;;25.48;57.95
56160;BME280;42043;46.052;13.612;2022-07-29T06:30:39;100371.19;;;25.42;58.28
56160;BME280;42043;46.052;13.612;2022-07-29T06:33:05;100374.25;;;25.85;56.73
56160;BME280;42043;46.052;13.612;2022-07-29T06:35:34;100382.16;;;25.87;55.97
56160;BME280;42043;46.052;13.612;2022-07-29T06:38:02;100386.44;;;25.93;55.82
56160;BME280;42043;46.052;13.612;2022-07-29T06:40:28;100381.00;;;25.93;56.34
56160;BME280;42043;46.052;13.612;2022-07-29T06:43:13;100380.09;;;26.08;54.96
56160;BME280;42043;46.052;13.612;2022-07-29T06:45:40;100380.19;;;25.97;55.17
56160;BME280;42043;46.052;13.612;2022-07-29T06:48:06;100377.03;;;26.25;54.05
56160;BME280;42043;46.052;13.612;2022-07-29T06:50:33;100367.94;;;26.45;54.04
56160;BME280;42043;46.052;13.612;2022-07-29T06:52:59;100375.22;;;26.54;53.83
56160;BME280;42043;46.052;13.612;2022-07-29T06:55:25;100373.78;;;26.67;52.46
56160;BME280;42043;46.052;13.612;2022-07-29T06:57:51;100366.97;;;26.70;52.86
56160;BME280;42043;46.052;13.612;2022-07-29T07:00:17;100376.75;;;26.95;52.34
56160;BME280;42043;46.052;13.612;2022-07-29T07:02:43;100383.31;;;26.94;52.01
56160;BME280;42043;46.052;13.612;2022-07-29T07:05:09;100369.84;;;26.78;52.29
56160;BME280;42043;46.052;13.612;2022-07-29T07:07:35;100365.47;;;26.82;51.28
56160;BME280;42043;46.052;13.612;2022-07-29T07:10:01;100359.13;;;26.92;51.02
56160;BME280;42043;46.052;13.612;2022-07-29T07:12:27;100358.66;;;27.14;50.35
56160;BME280;42043;46.052;13.612;2022-07-29T07:14:53;100359.31;;;27.30;50.17
56160;BME280;42043;46.052;13.612;2022-07-29T07:17:19;100368.75;;;27.62;49.22
56160;BME280;42043;46.052;13.612;2022-07-29T07:19:45;100365.19;;;27.61;48.74
56160;BME280;42043;46.052;13.612;2022-07-29T07:22:11;100355.72;;;27.83;47.98
56160;BME280;42043;46.052;13.612;2022-07-29T07:24:37;100353.22;;;27.62;47.57
56160;BME280;42043;46.052;13.612;2022-07-29T07:27:03;100352.13;;;27.82;47.10
56160;BME280;42043;46.052;13.612;2022-07-29T07:29:29;100354.69;;;28.17;46.93
56160;BME280;42043;46.052;13.612;2022-07-29T07:31:55;100358.63;;;28.43;46.64
56160;BME280;42043;46.052;13.612;2022-07-29T07:34:21;100344.94;;;28.48;45.66
56160;BME280;42043;46.052;13.612;2022-07-29T07:36:47;100349.31;;;28.49;45.21
56160;BME280;42043;46.052;13.612;2022-07-29T07:39:13;100352.53;;;28.84;45.44
56160;BME280;42043;46.052;13.612;2022-07-29T07:41:39;100349.28;;;28.82;44.11
56160;BME280;42043;46.052;13.612;2022-07-29T07:44:05;100350.81;;;28.88;43.50
56160;BME280;42043;46.052;13.612;2022-07-29T07:46:31;100344.63;;;29.29;43.39
56160;BME280;42043;46.052;13.612;2022-07-29T07:48:57;100351.34;;;29.73;42.12
56160;BME280;42043;46.052;13.612;2022-07-29T07:51:23;100341.69;;;30.04;42.03
56160;BME280;42043;46.052;13.612;2022-07-29T07:53:49;100337.28;;;29.94;40.60
56160;BME280;42043;46.052;13.612;2022-07-29T07:56:16;100334.56;;;30.16;41.03
56160;BME280;42043;46.052;13.612;2022-07-29T07:58:42;100337.56;;;30.51;39.42
56160;BME280;42043;46.052;13.612;2022-07-29T08:01:09;100345.78;;;30.29;39.21
56160;BME280;42043;46.052;13.612;2022-07-29T08:03:35;100343.59;;;30.39;38.67
56160;BME280;42043;46.052;13.612;2022-07-29T08:06:03;100341.28;;;30.33;37.49
56160;BME280;42043;46.052;13.612;2022-07-29T08:08:29;100341.78;;;30.57;36.77
56160;BME280;42043;46.052;13.612;2022-07-29T08:10:55;100337.31;;;30.62;37.38
56160;BME280;42043;46.052;13.612;2022-07-29T08:13:24;100334.31;;;31.03;36.73
56160;BME280;42043;46.052;13.612;2022-07-29T08:15:51;100326.81;;;31.17;36.20
56160;BME280;42043;46.052;13.612;2022-07-29T08:18:24;100327.09;;;31.56;35.63
56160;BME280;42043;46.052;13.612;2022-07-29T08:20:50;100323.78;;;31.85;35.61
56160;BME280;42043;46.052;13.612;2022-07-29T08:23:16;100327.47;;;31.80;35.33
56160;BME280;42043;46.052;13.612;2022-07-29T08:25:44;100330.69;;;32.17;35.43
56160;BME280;42043;46.052;13.612;2022-07-29T08:28:10;100333.59;;;31.95;35.32
56160;BME280;42043;46.052;13.612;2022-07-29T08:30:36;100320.25;;;32.11;33.74
56160;BME280;42043;46.052;13.612;2022-07-29T08:33:03;100321.38;;;32.18;34.09
56160;BME280;42043;46.052;13.612;2022-07-29T08:35:29;100322.31;;;32.40;33.57
56160;BME280;42043;46.052;13.612;2022-07-29T08:37:56;100330.03;;;33.02;33.12
56160;BME280;42043;46.052;13.612;2022-07-29T08:40:23;100329.78;;;32.86;33.30
56160;BME280;42043;46.052;13.612;2022-07-29T08:42:50;100317.94;;;33.12;31.89
56160;BME280;42043;46.052;13.612;2022-07-29T08:45:16;100322.75;;;33.15;32.80
56160;BME280;42043;46.052;13.612;2022-07-29T08:47:44;100324.88;;;33.39;31.49
56160;BME280;42043;46.052;13.612;2022-07-29T08:50:11;100318.38;;;32.76;32.82
56160;BME280;42043;46.052;13.612;2022-07-29T08:52:40;100316.91;;;33.17;30.75
56160;BME280;42043;46.052;13.612;2022-07-29T08:55:07;100324.66;;;33.74;30.55
56160;BME280;42043;46.052;13.612;2022-07-29T08:57:35;100321.50;;;33.84;28.34
56160;BME280;42043;46.052;13.612;2022-07-29T09:00:05;100329.97;;;33.49;28.44
56160;BME280;42043;46.052;13.612;2022-07-29T09:02:36;100320.41;;;33.26;28.75
56160;BME280;42043;46.052;13.612;2022-07-29T09:05:05;100328.75;;;33.38;28.83
56160;BME280;42043;46.052;13.612;2022-07-29T09:07:31;100331.81;;;33.37;29.18
56160;BME280;42043;46.052;13.612;2022-07-29T09:09:59;100325.56;;;32.89;28.89
56160;BME280;42043;46.052;13.612;2022-07-29T09:12:25;100313.09;;;33.39;29.64
56160;BME280;42043;46.052;13.612;2022-07-29T09:14:51;100316.34;;;34.04;27.88
56160;BME280;42043;46.052;13.612;2022-07-29T09:17:17;100305.94;;;33.17;30.13
56160;BME280;42043;46.052;13.612;2022-07-29T09:19:45;100303.81;;;33.94;29.32
56160;BME280;42043;46.052;13.612;2022-07-29T09:22:11;100293.53;;;34.12;28.46
56160;BME280;42043;46.052;13.612;2022-07-29T09:24:40;100300.19;;;33.69;28.75
56160;BME280;42043;46.052;13.612;2022-07-29T09:27:10;100315.97;;;33.93;29.49
56160;BME280;42043;46.052;13.612;2022-07-29T09:29:37;100301.75;;;33.91;28.74
56160;BME280;42043;46.052;13.612;2022-07-29T09:32:08;100295.84;;;33.38;28.55
56160;BME280;42043;46.052;13.612;2022-07-29T09:34:35;100303.56;;;33.66;28.88
56160;BME280;42043;46.052;13.612;2022-07-29T09:37:02;100298.66;;;34.13;27.77
56160;BME280;42043;46.052;13.612;2022-07-29T09:39:36;100299.09;;;34.36;27.73
56160;BME280;42043;46.052;13.612;2022-07-29T09:42:05;100285.34;;;34.36;27.18
56160;BME280;42043;46.052;13.612;2022-07-29T09:44:45;100293.47;;;34.91;27.19
56160;BME280;42043;46.052;13.612;2022-07-29T09:47:11;100294.25;;;34.21;27.42
56160;BME280;42043;46.052;13.612;2022-07-29T09:52:20;100296.59;;;33.89;28.16
56160;BME280;42043;46.052;13.612;2022-07-29T09:54:47;100297.28;;;34.41;27.66
56160;BME280;42043;46.052;13.612;2022-07-29T09:57:27;100296.97;;;34.54;26.72
56160;BME280;42043;46.052;13.612;2022-07-29T10:00:16;100293.38;;;35.12;26.90
56160;BME280;42043;46.052;13.612;2022-07-29T10:02:45;100287.41;;;34.85;27.08
56160;BME280;42043;46.052;13.612;2022-07-29T10:05:23;100284.44;;;34.78;26.21
56160;BME280;42043;46.052;13.612;2022-07-29T10:10:29;100287.66;;;35.82;26.16
56160;BME280;42043;46.052;13.612;2022-07-29T10:15:24;100276.91;;;35.65;26.23
56160;BME280;42043;46.052;13.612;2022-07-29T10:17:53;100274.53;;;35.51;26.28
56160;BME280;42043;46.052;13.612;2022-07-29T10:20:21;100278.88;;;35.92;26.93
56160;BME280;42043;46.052;13.612;2022-07-29T10:22:48;100281.03;;;35.58;26.57
56160;BME280;42043;46.052;13.612;2022-07-29T10:25:15;100283.41;;;34.95;26.95
56160;BME280;42043;46.052;13.612;2022-07-29T10:27:45;100272.72;;;35.06;27.12
56160;BME280;42043;46.052;13.612;2022-07-29T10:30:13;100268.13;;;35.10;27.59
56160;BME280;42043;46.052;13.612;2022-07-29T10:38:30;100266.31;;;35.79;26.44
56160;BME280;42043;46.052;13.612;2022-07-29T10:43:59;100271.84;;;36.67;24.71
56160;BME280;42043;46.052;13.612;2022-07-29T10:46:27;100266.19;;;36.32;25.99
56160;BME280;42043;46.052;13.612;2022-07-29T10:49:11;100256.97;;;35.96;25.83
56160;BME280;42043;46.052;13.612;2022-07-29T10:57:24;100251.31;;;37.16;24.82
56160;BME280;42043;46.052;13.612;2022-07-29T11:05:13;100240.03;;;37.05;25.06
56160;BME280;42043;46.052;13.612;2022-07-29T11:10:38;100241.75;;;37.10;24.83
56160;BME280;42043;46.052;13.612;2022-07-29T11:13:04;100242.81;;;37.79;23.76
56160;BME280;42043;46.052;13.612;2022-07-29T11:15:53;100240.84;;;37.80;24.59
56160;BME280;42043;46.052;13.612;2022-07-29T11:18:20;100238.03;;;37.57;24.49
56160;BME280;42043;46.052;13.612;2022-07-29T11:20:51;100244.94;;;36.96;24.88
56160;BME280;42043;46.052;13.612;2022-07-29T11:26:15;100236.88;;;37.22;24.71
56160;BME280;42043;46.052;13.612;2022-07-29T11:31:40;100227.50;;;38.01;23.36
56160;BME280;42043;46.052;13.612;2022-07-29T11:34:19;100224.16;;;38.15;23.97
56160;BME280;42043;46.052;13.612;2022-07-29T11:39:41;100230.31;;;39.61;22.18
56160;BME280;42043;46.052;13.612;2022-07-29T11:47:33;100224.13;;;39.11;21.83
56160;BME280;42043;46.052;13.612;2022-07-29T11:50:01;100226.03;;;38.80;22.96
56160;BME280;42043;46.052;13.612;2022-07-29T11:52:37;100207.75;;;39.59;22.07
56160;BME280;42043;46.052;13.612;2022-07-29T11:55:10;100215.50;;;39.80;22.50
56160;BME280;42043;46.052;13.612;2022-07-29T11:57:44;100217.66;;;39.94;21.97
56160;BME280;42043;46.052;13.612;2022-07-29T12:00:11;100213.72;;;39.95;21.48
56160;BME280;42043;46.052;13.612;2022-07-29T12:02:42;100206.16;;;39.28;22.03
56160;BME280;42043;46.052;13.612;2022-07-29T12:05:10;100194.81;;;39.70;21.14
56160;BME280;42043;46.052;13.612;2022-07-29T12:07:37;100210.00;;;39.50;21.68
56160;BME280;42043;46.052;13.612;2022-07-29T12:10:05;100205.31;;;39.54;21.38
56160;BME280;42043;46.052;13.612;2022-07-29T12:12:32;100198.88;;;39.80;21.67
56160;BME280;42043;46.052;13.612;2022-07-29T12:14:58;100201.56;;;40.10;20.84
56160;BME280;42043;46.052;13.612;2022-07-29T12:17:35;100206.41;;;39.79;21.59
56160;BME280;42043;46.052;13.612;2022-07-29T12:20:04;100204.59;;;39.27;22.07
56160;BME280;42043;46.052;13.612;2022-07-29T12:22:36;100190.75;;;40.98;20.25
56160;BME280;42043;46.052;13.612;2022-07-29T12:25:08;100191.06;;;40.30;20.91
56160;BME280;42043;46.052;13.612;2022-07-29T12:27:36;100200.78;;;40.10;21.42
56160;BME280;42043;46.052;13.612;2022-07-29T12:30:05;100206.22;;;39.01;22.57
56160;BME280;42043;46.052;13.612;2022-07-29T12:32:39;100178.81;;;39.53;22.73
56160;BME280;42043;46.052;13.612;2022-07-29T12:35:09;100168.25;;;40.51;21.71
56160;BME280;42043;46.052;13.612;2022-07-29T12:37:38;100169.06;;;40.55;21.43
56160;BME280;42043;46.052;13.612;2022-07-29T12:40:05;100170.09;;;39.21;22.49
56160;BME280;42043;46.052;13.612;2022-07-29T12:42:33;100175.78;;;40.06;21.56
56160;BME280;42043;46.052;13.612;2022-07-29T12:45:00;100175.78;;;40.51;21.47
56160;BME280;42043;46.052;13.612;2022-07-29T12:47:27;100162.00;;;41.45;20.61
56160;BME280;42043;46.052;13.612;2022-07-29T12:50:14;100165.53;;;41.32;20.93
56160;BME280;42043;46.052;13.612;2022-07-29T12:52:44;100160.38;;;40.60;21.30
56160;BME280;42043;46.052;13.612;2022-07-29T12:55:11;100173.78;;;40.48;21.43
56160;BME280;42043;46.052;13.612;2022-07-29T12:57:48;100174.22;;;41.19;20.89
56160;BME280;42043;46.052;13.612;2022-07-29T13:00:16;100174.81;;;41.82;20.43
56160;BME280;42043;46.052;13.612;2022-07-29T13:02:55;100174.44;;;41.87;20.01
56160;BME280;42043;46.052;13.612;2022-07-29T13:05:21;100175.97;;;41.60;20.05
56160;BME280;42043;46.052;13.612;2022-07-29T13:07:48;100172.00;;;41.61;20.16
56160;BME280;42043;46.052;13.612;2022-07-29T13:10:20;100161.59;;;41.43;21.14
56160;BME280;42043;46.052;13.612;2022-07-29T13:13:10;100165.97;;;40.12;22.36
56160;BME280;42043;46.052;13.612;2022-07-29T13:15:38;100174.81;;;41.82;20.33
56160;BME280;42043;46.052;13.612;2022-07-29T13:18:05;100160.78;;;41.25;21.22
56160;BME280;42043;46.052;13.612;2022-07-29T13:20:51;100164.06;;;41.63;21.32
56160;BME280;42043;46.052;13.612;2022-07-29T13:23:17;100174.69;;;41.43;20.45
56160;BME280;42043;46.052;13.612;2022-07-29T13:25:43;100172.28;;;41.31;20.99
56160;BME280;42043;46.052;13.612;2022-07-29T13:28:09;100169.09;;;40.07;22.49
56160;BME280;42043;46.052;13.612;2022-07-29T13:30:39;100160.88;;;40.21;22.64
56160;BME280;42043;46.052;13.612;2022-07-29T13:33:05;100160.94;;;39.47;23.09
56160;BME280;42043;46.052;13.612;2022-07-29T13:35:31;100161.56;;;40.11;22.84
56160;BME280;42043;46.052;13.612;2022-07-29T13:37:57;100151.38;;;40.19;22.49
56160;BME280;42043;46.052;13.612;2022-07-29T13:40:23;100150.94;;;40.17;22.83